sensor_id;sensor_type;location;lat;lon;timestamp;temperature;humidity
18218;DHT22;9234;49.344;11.120;2022-11-21T00:00:23;5.10;99.90
18218;DHT22;9234;49.344;11.120;2022-11-21T00:02:52;5.10;99.90
18218;DHT22;9234;49.344;11.120;2022-11-21T00:05:22;5.10;99.90
18218;DHT22;9234;49.344;11.120;2022-11-21T00:07:51;5.10;99.90
18218;DHT22;9234;49.344;11.120;2022-11-21T00:10:19;5.10;99.90
18218;DHT22;9234;49.344;11.120;2022-11-21T00:12:52;5.10;99.90
18218;DHT22;9234;49.344;11.120;2022-11-21T00:15:22;5.10;99.90
18218;DHT22;9234;49.344;11.120;2022-11-21T00:17:52;5.10;99.90
18218;DHT22;9234;49.344;11.120;2022-11-21T00:20:21;5.10;99.90
18218;DHT22;9234;49.344;11.120;2022-11-21T00:22:49;5.10;99.90
18218;DHT22;9234;49.344;11.120;2022-11-21T00:25:18;5.20;99.90
18218;DHT22;9234;49.344;11.120;2022-11-21T00:27:46;5.20;99.90
18218;DHT22;9234;49.344;11.120;2022-11-21T00:30:16;5.20;99.90
18218;DHT22;9234;49.344;11.120;2022-11-21T00:32:44;5.20;99.90
18218;DHT22;9234;49.344;11.120;2022-11-21T00:35:13;5.20;99.90
18218;DHT22;9234;49.344;11.120;2022-11-21T00:37:41;5.20;99.90
18218;DHT22;9234;49.344;11.120;2022-11-21T00:40:10;5.30;99.90
18218;DHT22;9234;49.344;11.120;2022-11-21T00:42:38;5.30;99.90
18218;DHT22;9234;49.344;11.120;2022-11-21T00:45:07;5.30;99.90
18218;DHT22;9234;49.344;11.120;2022-11-21T00:47:38;5.30;99.90
18218;DHT22;9234;49.344;11.120;2022-11-21T00:50:06;5.30;99.90
18218;DHT22;9234;49.344;11.120;2022-11-21T00:52:36;5.30;99.90
18218;DHT22;9234;49.344;11.120;2022-11-21T00:55:05;5.30;99.90
18218;DHT22;9234;49.344;11.120;2022-11-21T00:57:33;5.30;99.90
18218;DHT22;9234;49.344;11.120;2022-11-21T01:00:02;5.40;99.90
18218;DHT22;9234;49.344;11.120;2022-11-21T01:02:31;5.40;99.90
18218;DHT22;9234;49.344;11.120;2022-11-21T01:05:01;5.40;99.90
18218;DHT22;9234;49.344;11.120;2022-11-21T01:07:29;5.40;99.90
18218;DHT22;9234;49.344;11.120;2022-11-21T01:09:58;5.40;99.90
18218;DHT22;9234;49.344;11.120;2022-11-21T01:12:26;5.40;99.90
18218;DHT22;9234;49.344;11.120;2022-11-21T01:14:54;5.40;99.90
18218;DHT22;9234;49.344;11.120;2022-11-21T01:17:23;5.40;99.90
18218;DHT22;9234;49.344;11.120;2022-11-21T01:19:51;5.40;99.90
18218;DHT22;9234;49.344;11.120;2022-11-21T01:22:21;5.40;99.90
18218;DHT22;9234;49.344;11.120;2022-11-21T01:24:49;5.40;99.90
18218;DHT22;9234;49.344;11.120;2022-11-21T01:27:18;5.50;99.90
18218;DHT22;9234;49.344;11.120;2022-11-21T01:29:46;5.50;99.90
18218;DHT22;9234;49.344;11.120;2022-11-21T01:32:14;5.50;99.90
18218;DHT22;9234;49.344;11.120;2022-11-21T01:34:43;5.50;99.90
18218;DHT22;9234;49.344;11.120;2022-11-21T01:37:11;5.50;99.90
18218;DHT22;9234;49.344;11.120;2022-11-21T01:39:41;5.50;99.90
18218;DHT22;9234;49.344;11.120;2022-11-21T01:42:11;5.60;99.90
18218;DHT22;9234;49.344;11.120;2022-11-21T01:44:48;5.60;99.90
18218;DHT22;9234;49.344;11.120;2022-11-21T01:47:19;5.60;99.90
18218;DHT22;9234;49.344;11.120;2022-11-21T01:49:50;5.60;99.90
18218;DHT22;9234;49.344;11.120;2022-11-21T01:52:23;5.60;99.90
18218;DHT22;9234;49.344;11.120;2022-11-21T01:54:57;5.60;99.90
18218;DHT22;9234;49.344;11.120;2022-11-21T01:57:33;5.70;99.90
18218;DHT22;9234;49.344;11.120;2022-11-21T02:00:07;5.70;99.90
18218;DHT22;9234;49.344;11.120;2022-11-21T02:02:40;5.70;99.90
18218;DHT22;9234;49.344;11.120;2022-11-21T02:05:14;5.70;99.90
18218;DHT22;9234;49.344;11.120;2022-11-21T02:07:47;5.70;99.90
18218;DHT22;9234;49.344;11.120;2022-11-21T02:10:19;5.70;99.90
18218;DHT22;9234;49.344;11.120;2022-11-21T02:12:50;5.70;99.90
18218;DHT22;9234;49.344;11.120;2022-11-21T02:15:22;5.70;99.90
18218;DHT22;9234;49.344;11.120;2022-11-21T02:17:52;5.70;99.90
18218;DHT22;9234;49.344;11.120;2022-11-21T02:20:22;5.70;99.90
18218;DHT22;9234;49.344;11.120;2022-11-21T02:22:58;5.70;99.90
18218;DHT22;9234;49.344;11.120;2022-11-21T02:25:35;5.70;99.90
18218;DHT22;9234;49.344;11.120;2022-11-21T02:28:06;5.70;99.90
18218;DHT22;9234;49.344;11.120;2022-11-21T02:30:40;5.70;99.90
18218;DHT22;9234;49.344;11.120;2022-11-21T02:33:10;5.70;99.90
18218;DHT22;9234;49.344;11.120;2022-11-21T02:35:39;5.70;99.90
18218;DHT22;9234;49.344;11.120;2022-11-21T02:38:15;5.70;99.90
18218;DHT22;9234;49.344;11.120;2022-11-21T02:40:52;5.70;99.90
18218;DHT22;9234;49.344;11.120;2022-11-21T02:43:29;5.70;99.90
18218;DHT22;9234;49.344;11.120;2022-11-21T02:46:03;5.70;99.90
18218;DHT22;9234;49.344;11.120;2022-11-21T02:48:31;5.70;99.90
18218;DHT22;9234;49.344;11.120;2022-11-21T02:51:00;5.70;99.90
18218;DHT22;9234;49.344;11.120;2022-11-21T02:53:28;5.70;99.90
18218;DHT22;9234;49.344;11.120;2022-11-21T02:55:58;5.70;99.90
18218;DHT22;9234;49.344;11.120;2022-11-21T02:58:26;5.70;99.90
18218;DHT22;9234;49.344;11.120;2022-11-21T03:00:55;5.60;99.90
18218;DHT22;9234;49.344;11.120;2022-11-21T03:03:23;5.70;99.90
18218;DHT22;9234;49.344;11.120;2022-11-21T03:05:52;5.60;99.90
18218;DHT22;9234;49.344;11.120;2022-11-21T03:08:20;5.60;99.90
18218;DHT22;9234;49.344;11.120;2022-11-21T03:10:49;5.60;99.90
18218;DHT22;9234;49.344;11.120;2022-11-21T03:13:18;5.60;99.90
18218;DHT22;9234;49.344;11.120;2022-11-21T03:15:46;5.60;99.90
18218;DHT22;9234;49.344;11.120;2022-11-21T03:18:15;5.60;99.90
18218;DHT22;9234;49.344;11.120;2022-11-21T03:20:43;5.60;99.90
18218;DHT22;9234;49.344;11.120;2022-11-21T03:23:11;5.70;99.90
18218;DHT22;9234;49.344;11.120;2022-11-21T03:25:39;5.70;99.90
18218;DHT22;9234;49.344;11.120;2022-11-21T03:28:09;5.60;99.90
18218;DHT22;9234;49.344;11.120;2022-11-21T03:30:38;5.60;99.90
18218;DHT22;9234;49.344;11.120;2022-11-21T03:33:07;5.60;99.90
18218;DHT22;9234;49.344;11.120;2022-11-21T03:35:35;5.60;99.90
18218;DHT22;9234;49.344;11.120;2022-11-21T03:38:03;5.60;99.90
18218;DHT22;9234;49.344;11.120;2022-11-21T03:40:31;5.60;99.90
18218;DHT22;9234;49.344;11.120;2022-11-21T03:43:03;5.50;99.90
18218;DHT22;9234;49.344;11.120;2022-11-21T03:45:33;5.50;99.90
18218;DHT22;9234;49.344;11.120;2022-11-21T03:48:03;5.60;99.90
18218;DHT22;9234;49.344;11.120;2022-11-21T03:50:31;5.60;99.90
18218;DHT22;9234;49.344;11.120;2022-11-21T03:53:00;5.60;99.90
18218;DHT22;9234;49.344;11.120;2022-11-21T03:55:28;5.60;99.90
18218;DHT22;9234;49.344;11.120;2022-11-21T03:57:56;5.60;99.90
18218;DHT22;9234;49.344;11.120;2022-11-21T04:00:24;5.60;99.90
18218;DHT22;9234;49.344;11.120;2022-11-21T04:02:54;5.60;99.90
18218;DHT22;9234;49.344;11.120;2022-11-21T04:05:24;5.60;99.90
18218;DHT22;9234;49.344;11.120;2022-11-21T04:07:52;5.60;99.90
18218;DHT22;9234;49.344;11.120;2022-11-21T04:10:21;5.60;99.90
18218;DHT22;9234;49.344;11.120;2022-11-21T04:12:49;5.60;99.90
18218;DHT22;9234;49.344;11.120;2022-11-21T04:15:18;5.60;99.90
18218;DHT22;9234;49.344;11.120;2022-11-21T04:17:46;5.60;99.90
18218;DHT22;9234;49.344;11.120;2022-11-21T04:20:15;5.60;99.90
18218;DHT22;9234;49.344;11.120;2022-11-21T04:22:45;5.50;99.90
18218;DHT22;9234;49.344;11.120;2022-11-21T04:25:13;5.50;99.90
18218;DHT22;9234;49.344;11.120;2022-11-21T04:27:42;5.50;99.90
18218;DHT22;9234;49.344;11.120;2022-11-21T04:30:12;5.50;99.90
18218;DHT22;9234;49.344;11.120;2022-11-21T04:32:41;5.50;99.90
18218;DHT22;9234;49.344;11.120;2022-11-21T04:35:10;5.50;99.90
18218;DHT22;9234;49.344;11.120;2022-11-21T04:37:38;5.50;99.90
18218;DHT22;9234;49.344;11.120;2022-11-21T04:40:09;5.50;99.90
18218;DHT22;9234;49.344;11.120;2022-11-21T04:42:40;5.50;99.90
18218;DHT22;9234;49.344;11.120;2022-11-21T04:45:09;5.50;99.90
18218;DHT22;9234;49.344;11.120;2022-11-21T04:47:40;5.50;99.90
18218;DHT22;9234;49.344;11.120;2022-11-21T04:50:11;5.50;99.90
18218;DHT22;9234;49.344;11.120;2022-11-21T04:52:40;5.50;99.90
18218;DHT22;9234;49.344;11.120;2022-11-21T04:55:10;5.60;99.90
18218;DHT22;9234;49.344;11.120;2022-11-21T04:57:39;5.60;99.90
18218;DHT22;9234;49.344;11.120;2022-11-21T05:00:08;5.60;99.90
18218;DHT22;9234;49.344;11.120;2022-11-21T05:02:37;5.60;99.90
18218;DHT22;9234;49.344;11.120;2022-11-21T05:05:06;5.60;99.90
18218;DHT22;9234;49.344;11.120;2022-11-21T05:07:35;5.60;99.90
18218;DHT22;9234;49.344;11.120;2022-11-21T05:10:04;5.60;99.90
18218;DHT22;9234;49.344;11.120;2022-11-21T05:12:34;5.60;99.90
18218;DHT22;9234;49.344;11.120;2022-11-21T05:15:20;5.60;99.90
18218;DHT22;9234;49.344;11.120;2022-11-21T05:17:51;5.60;99.90
18218;DHT22;9234;49.344;11.120;2022-11-21T05:20:19;5.60;99.90
18218;DHT22;9234;49.344;11.120;2022-11-21T05:22:50;5.60;99.90
18218;DHT22;9234;49.344;11.120;2022-11-21T05:25:19;5.60;99.90
18218;DHT22;9234;49.344;11.120;2022-11-21T05:27:49;5.50;99.90
18218;DHT22;9234;49.344;11.120;2022-11-21T05:30:17;5.50;99.90
18218;DHT22;9234;49.344;11.120;2022-11-21T05:32:45;5.40;99.90
18218;DHT22;9234;49.344;11.120;2022-11-21T05:35:14;5.30;99.90
18218;DHT22;9234;49.344;11.120;2022-11-21T05:37:42;5.30;99.90
18218;DHT22;9234;49.344;11.120;2022-11-21T05:40:11;5.20;99.90
18218;DHT22;9234;49.344;11.120;2022-11-21T05:42:40;5.20;99.90
18218;DHT22;9234;49.344;11.120;2022-11-21T05:45:27;5.10;99.90
18218;DHT22;9234;49.344;11.120;2022-11-21T05:47:55;5.10;99.90
18218;DHT22;9234;49.344;11.120;2022-11-21T05:50:24;5.00;99.90
18218;DHT22;9234;49.344;11.120;2022-11-21T05:52:52;5.00;99.90
18218;DHT22;9234;49.344;11.120;2022-11-21T05:55:20;4.90;99.90
18218;DHT22;9234;49.344;11.120;2022-11-21T05:57:48;4.90;99.90
18218;DHT22;9234;49.344;11.120;2022-11-21T06:00:17;4.80;99.90
18218;DHT22;9234;49.344;11.120;2022-11-21T06:02:48;4.80;99.90
18218;DHT22;9234;49.344;11.120;2022-11-21T06:05:34;4.70;99.90
18218;DHT22;9234;49.344;11.120;2022-11-21T06:08:03;4.70;99.90
18218;DHT22;9234;49.344;11.120;2022-11-21T06:10:31;4.60;99.90
18218;DHT22;9234;49.344;11.120;2022-11-21T06:12:59;4.60;99.90
18218;DHT22;9234;49.344;11.120;2022-11-21T06:15:30;4.60;99.90
18218;DHT22;9234;49.344;11.120;2022-11-21T06:18:00;4.60;99.90
18218;DHT22;9234;49.344;11.120;2022-11-21T06:20:28;4.60;99.90
18218;DHT22;9234;49.344;11.120;2022-11-21T06:22:56;4.50;99.90
18218;DHT22;9234;49.344;11.120;2022-11-21T06:25:25;4.50;99.90
18218;DHT22;9234;49.344;11.120;2022-11-21T06:27:53;4.50;99.90
18218;DHT22;9234;49.344;11.120;2022-11-21T06:30:21;4.60;99.90
18218;DHT22;9234;49.344;11.120;2022-11-21T06:32:49;4.60;99.90
18218;DHT22;9234;49.344;11.120;2022-11-21T06:35:19;4.60;99.90
18218;DHT22;9234;49.344;11.120;2022-11-21T06:37:47;4.60;99.90
18218;DHT22;9234;49.344;11.120;2022-11-21T06:40:19;4.60;99.90
18218;DHT22;9234;49.344;11.120;2022-11-21T06:42:47;4.60;99.90
18218;DHT22;9234;49.344;11.120;2022-11-21T06:45:15;4.60;99.90
18218;DHT22;9234;49.344;11.120;2022-11-21T06:47:44;4.60;99.90
18218;DHT22;9234;49.344;11.120;2022-11-21T06:50:12;4.70;99.90
18218;DHT22;9234;49.344;11.120;2022-11-21T06:52:42;4.70;99.90
18218;DHT22;9234;49.344;11.120;2022-11-21T06:55:10;4.70;99.90
18218;DHT22;9234;49.344;11.120;2022-11-21T06:57:39;4.70;99.90
18218;DHT22;9234;49.344;11.120;2022-11-21T07:00:08;4.80;99.90
18218;DHT22;9234;49.344;11.120;2022-11-21T07:02:37;4.80;99.90
18218;DHT22;9234;49.344;11.120;2022-11-21T07:05:06;4.80;99.90
18218;DHT22;9234;49.344;11.120;2022-11-21T07:07:34;4.80;99.90
18218;DHT22;9234;49.344;11.120;2022-11-21T07:10:05;4.80;99.90
18218;DHT22;9234;49.344;11.120;2022-11-21T07:12:34;4.70;99.90
18218;DHT22;9234;49.344;11.120;2022-11-21T07:15:20;4.70;99.90
18218;DHT22;9234;49.344;11.120;2022-11-21T07:17:48;4.70;99.90
18218;DHT22;9234;49.344;11.120;2022-11-21T07:20:16;4.70;99.90
18218;DHT22;9234;49.344;11.120;2022-11-21T07:22:45;4.70;99.90
18218;DHT22;9234;49.344;11.120;2022-11-21T07:25:14;4.70;99.90
18218;DHT22;9234;49.344;11.120;2022-11-21T07:27:43;4.70;99.90
18218;DHT22;9234;49.344;11.120;2022-11-21T07:30:12;4.70;99.90
18218;DHT22;9234;49.344;11.120;2022-11-21T07:32:41;4.80;99.90
18218;DHT22;9234;49.344;11.120;2022-11-21T07:35:10;4.80;99.90
18218;DHT22;9234;49.344;11.120;2022-11-21T07:37:38;4.90;99.90
18218;DHT22;9234;49.344;11.120;2022-11-21T07:40:07;5.00;99.90
18218;DHT22;9234;49.344;11.120;2022-11-21T07:42:37;5.00;99.90
18218;DHT22;9234;49.344;11.120;2022-11-21T07:45:06;5.10;99.90
18218;DHT22;9234;49.344;11.120;2022-11-21T07:47:36;5.10;99.90
18218;DHT22;9234;49.344;11.120;2022-11-21T07:50:05;5.20;99.90
18218;DHT22;9234;49.344;11.120;2022-11-21T07:52:35;5.20;99.90
18218;DHT22;9234;49.344;11.120;2022-11-21T07:55:04;5.20;99.90
18218;DHT22;9234;49.344;11.120;2022-11-21T07:57:33;5.30;99.90
18218;DHT22;9234;49.344;11.120;2022-11-21T08:00:03;5.40;99.90
18218;DHT22;9234;49.344;11.120;2022-11-21T08:02:32;5.40;99.90
18218;DHT22;9234;49.344;11.120;2022-11-21T08:05:00;5.50;99.90
18218;DHT22;9234;49.344;11.120;2022-11-21T08:07:29;5.60;99.90
18218;DHT22;9234;49.344;11.120;2022-11-21T08:09:58;5.60;99.90
18218;DHT22;9234;49.344;11.120;2022-11-21T08:12:26;5.60;99.90
18218;DHT22;9234;49.344;11.120;2022-11-21T08:14:54;5.60;99.90
18218;DHT22;9234;49.344;11.120;2022-11-21T08:17:26;5.70;99.90
18218;DHT22;9234;49.344;11.120;2022-11-21T08:19:54;5.70;99.90
18218;DHT22;9234;49.344;11.120;2022-11-21T08:22:23;5.70;99.90
18218;DHT22;9234;49.344;11.120;2022-11-21T08:24:52;5.70;99.90
18218;DHT22;9234;49.344;11.120;2022-11-21T08:27:21;5.70;99.90
18218;DHT22;9234;49.344;11.120;2022-11-21T08:29:50;5.80;99.90
18218;DHT22;9234;49.344;11.120;2022-11-21T08:32:18;5.80;99.90
18218;DHT22;9234;49.344;11.120;2022-11-21T08:34:48;5.90;99.90
18218;DHT22;9234;49.344;11.120;2022-11-21T08:37:16;6.00;99.90
18218;DHT22;9234;49.344;11.120;2022-11-21T08:39:44;6.10;99.90
18218;DHT22;9234;49.344;11.120;2022-11-21T08:42:12;6.20;99.90
18218;DHT22;9234;49.344;11.120;2022-11-21T08:44:41;6.20;99.90
18218;DHT22;9234;49.344;11.120;2022-11-21T08:47:09;6.30;99.90
18218;DHT22;9234;49.344;11.120;2022-11-21T08:49:37;6.30;99.90
18218;DHT22;9234;49.344;11.120;2022-11-21T08:52:07;6.30;99.90
18218;DHT22;9234;49.344;11.120;2022-11-21T08:54:35;6.30;99.90
18218;DHT22;9234;49.344;11.120;2022-11-21T08:57:03;6.40;99.90
18218;DHT22;9234;49.344;11.120;2022-11-21T08:59:31;6.50;99.90
18218;DHT22;9234;49.344;11.120;2022-11-21T09:02:00;6.60;99.90
18218;DHT22;9234;49.344;11.120;2022-11-21T09:04:28;6.70;99.90
18218;DHT22;9234;49.344;11.120;2022-11-21T09:06:57;6.80;99.90
18218;DHT22;9234;49.344;11.120;2022-11-21T09:09:26;6.90;99.90
18218;DHT22;9234;49.344;11.120;2022-11-21T09:11:55;7.00;99.90
18218;DHT22;9234;49.344;11.120;2022-11-21T09:14:23;7.00;99.90
18218;DHT22;9234;49.344;11.120;2022-11-21T09:17:11;7.00;99.90
18218;DHT22;9234;49.344;11.120;2022-11-21T09:19:57;7.10;99.90
18218;DHT22;9234;49.344;11.120;2022-11-21T09:22:26;7.10;99.90
18218;DHT22;9234;49.344;11.120;2022-11-21T09:24:55;7.10;99.90
18218;DHT22;9234;49.344;11.120;2022-11-21T09:27:24;7.20;99.90
18218;DHT22;9234;49.344;11.120;2022-11-21T09:29:52;7.20;99.90
18218;DHT22;9234;49.344;11.120;2022-11-21T09:32:20;7.30;99.90
18218;DHT22;9234;49.344;11.120;2022-11-21T09:34:49;7.20;99.90
18218;DHT22;9234;49.344;11.120;2022-11-21T09:37:17;7.20;99.90
18218;DHT22;9234;49.344;11.120;2022-11-21T09:39:46;7.20;99.90
18218;DHT22;9234;49.344;11.120;2022-11-21T09:42:34;7.20;99.90
18218;DHT22;9234;49.344;11.120;2022-11-21T09:45:23;7.20;99.90
18218;DHT22;9234;49.344;11.120;2022-11-21T09:47:54;7.20;99.90
18218;DHT22;9234;49.344;11.120;2022-11-21T09:50:27;7.30;99.90
18218;DHT22;9234;49.344;11.120;2022-11-21T09:53:02;7.30;99.90
18218;DHT22;9234;49.344;11.120;2022-11-21T09:55:41;7.40;99.90
18218;DHT22;9234;49.344;11.120;2022-11-21T09:58:19;7.50;99.90
18218;DHT22;9234;49.344;11.120;2022-11-21T10:00:53;7.60;99.90
18218;DHT22;9234;49.344;11.120;2022-11-21T10:03:26;7.60;99.90
18218;DHT22;9234;49.344;11.120;2022-11-21T10:06:00;7.60;99.90
18218;DHT22;9234;49.344;11.120;2022-11-21T10:08:39;7.60;99.90
18218;DHT22;9234;49.344;11.120;2022-11-21T10:11:20;7.50;99.90
18218;DHT22;9234;49.344;11.120;2022-11-21T10:14:07;7.60;99.90
18218;DHT22;9234;49.344;11.120;2022-11-21T10:16:48;7.70;99.90
18218;DHT22;9234;49.344;11.120;2022-11-21T10:19:44;7.70;99.90
18218;DHT22;9234;49.344;11.120;2022-11-21T10:22:40;7.80;99.90
18218;DHT22;9234;49.344;11.120;2022-11-21T10:25:23;7.80;99.90
18218;DHT22;9234;49.344;11.120;2022-11-21T10:27:57;7.90;99.90
18218;DHT22;9234;49.344;11.120;2022-11-21T10:30:33;7.90;99.90
18218;DHT22;9234;49.344;11.120;2022-11-21T10:33:07;8.10;99.90
18218;DHT22;9234;49.344;11.120;2022-11-21T10:35:44;8.30;99.90
18218;DHT22;9234;49.344;11.120;2022-11-21T10:38:20;8.50;99.90
18218;DHT22;9234;49.344;11.120;2022-11-21T10:40:51;8.70;99.90
18218;DHT22;9234;49.344;11.120;2022-11-21T10:43:33;8.70;99.90
18218;DHT22;9234;49.344;11.120;2022-11-21T10:46:25;8.80;99.90
18218;DHT22;9234;49.344;11.120;2022-11-21T10:48:55;8.90;99.90
18218;DHT22;9234;49.344;11.120;2022-11-21T10:51:44;9.10;99.90
18218;DHT22;9234;49.344;11.120;2022-11-21T10:54:18;9.20;99.90
18218;DHT22;9234;49.344;11.120;2022-11-21T10:57:09;9.20;99.90
18218;DHT22;9234;49.344;11.120;2022-11-21T10:59:40;9.20;99.90
18218;DHT22;9234;49.344;11.120;2022-11-21T11:02:26;9.00;99.90
18218;DHT22;9234;49.344;11.120;2022-11-21T11:05:24;8.90;99.90
18218;DHT22;9234;49.344;11.120;2022-11-21T11:08:05;8.60;99.90
18218;DHT22;9234;49.344;11.120;2022-11-21T11:10:36;8.40;99.90
18218;DHT22;9234;49.344;11.120;2022-11-21T11:13:13;8.20;99.90
18218;DHT22;9234;49.344;11.120;2022-11-21T11:16:18;8.10;99.90
18218;DHT22;9234;49.344;11.120;2022-11-21T11:18:55;7.90;99.90
18218;DHT22;9234;49.344;11.120;2022-11-21T11:21:29;7.80;99.90
18218;DHT22;9234;49.344;11.120;2022-11-21T11:24:20;7.70;99.90
18218;DHT22;9234;49.344;11.120;2022-11-21T11:26:56;7.50;99.90
18218;DHT22;9234;49.344;11.120;2022-11-21T11:29:27;7.40;99.90
18218;DHT22;9234;49.344;11.120;2022-11-21T11:31:59;7.30;99.90
18218;DHT22;9234;49.344;11.120;2022-11-21T11:34:38;7.30;99.90
18218;DHT22;9234;49.344;11.120;2022-11-21T11:37:12;7.20;99.90
18218;DHT22;9234;49.344;11.120;2022-11-21T11:39:53;7.20;99.90
18218;DHT22;9234;49.344;11.120;2022-11-21T11:46:03;7.10;99.90
18218;DHT22;9234;49.344;11.120;2022-11-21T11:49:07;7.10;99.90
18218;DHT22;9234;49.344;11.120;2022-11-21T11:51:52;7.10;99.90
18218;DHT22;9234;49.344;11.120;2022-11-21T11:54:25;7.20;99.90
18218;DHT22;9234;49.344;11.120;2022-11-21T11:56:56;7.30;99.90
18218;DHT22;9234;49.344;11.120;2022-11-21T11:59:31;7.40;99.90
18218;DHT22;9234;49.344;11.120;2022-11-21T12:02:12;7.50;99.90
18218;DHT22;9234;49.344;11.120;2022-11-21T12:04:49;7.40;99.90
18218;DHT22;9234;49.344;11.120;2022-11-21T12:07:27;7.40;99.90
18218;DHT22;9234;49.344;11.120;2022-11-21T12:10:25;7.40;99.90
18218;DHT22;9234;49.344;11.120;2022-11-21T12:13:03;7.50;99.90
18218;DHT22;9234;49.344;11.120;2022-11-21T12:15:40;7.70;99.90
18218;DHT22;9234;49.344;11.120;2022-11-21T12:18:25;7.90;99.90
18218;DHT22;9234;49.344;11.120;2022-11-21T12:21:06;8.00;99.90
18218;DHT22;9234;49.344;11.120;2022-11-21T12:23:45;8.20;99.90
18218;DHT22;9234;49.344;11.120;2022-11-21T12:26:30;8.20;99.90
18218;DHT22;9234;49.344;11.120;2022-11-21T12:29:14;8.30;99.90
18218;DHT22;9234;49.344;11.120;2022-11-21T12:32:03;8.30;99.90
18218;DHT22;9234;49.344;11.120;2022-11-21T12:34:56;8.40;99.90
18218;DHT22;9234;49.344;11.120;2022-11-21T12:37:44;8.60;99.90
18218;DHT22;9234;49.344;11.120;2022-11-21T12:40:33;8.70;99.90
18218;DHT22;9234;49.344;11.120;2022-11-21T12:43:19;8.80;99.90
18218;DHT22;9234;49.344;11.120;2022-11-21T12:45:59;8.80;99.90
18218;DHT22;9234;49.344;11.120;2022-11-21T12:48:42;8.80;99.90
18218;DHT22;9234;49.344;11.120;2022-11-21T12:51:53;8.70;99.90
18218;DHT22;9234;49.344;11.120;2022-11-21T12:55:08;8.80;99.90
18218;DHT22;9234;49.344;11.120;2022-11-21T12:58:22;9.10;99.90
18218;DHT22;9234;49.344;11.120;2022-11-21T13:01:07;9.20;99.90
18218;DHT22;9234;49.344;11.120;2022-11-21T13:03:55;9.20;99.90
18218;DHT22;9234;49.344;11.120;2022-11-21T13:06:29;9.20;99.90
18218;DHT22;9234;49.344;11.120;2022-11-21T13:09:03;9.10;99.90
18218;DHT22;9234;49.344;11.120;2022-11-21T13:11:44;9.00;99.90
18218;DHT22;9234;49.344;11.120;2022-11-21T13:14:36;9.20;99.90
18218;DHT22;9234;49.344;11.120;2022-11-21T13:17:22;9.60;99.90
18218;DHT22;9234;49.344;11.120;2022-11-21T13:20:11;10.00;99.90
18218;DHT22;9234;49.344;11.120;2022-11-21T13:22:50;10.50;99.90
18218;DHT22;9234;49.344;11.120;2022-11-21T13:25:43;10.80;99.90
18218;DHT22;9234;49.344;11.120;2022-11-21T13:28:35;11.00;99.90
18218;DHT22;9234;49.344;11.120;2022-11-21T13:31:27;11.20;99.90
18218;DHT22;9234;49.344;11.120;2022-11-21T13:33:57;11.40;99.90
18218;DHT22;9234;49.344;11.120;2022-11-21T13:36:41;11.40;99.90
18218;DHT22;9234;49.344;11.120;2022-11-21T13:39:34;11.60;99.90
18218;DHT22;9234;49.344;11.120;2022-11-21T13:42:13;11.80;99.90
18218;DHT22;9234;49.344;11.120;2022-11-21T13:48:44;11.90;99.90
18218;DHT22;9234;49.344;11.120;2022-11-21T13:51:52;11.80;99.90
18218;DHT22;9234;49.344;11.120;2022-11-21T13:58:00;11.50;99.90
18218;DHT22;9234;49.344;11.120;2022-11-21T14:00:54;11.30;99.90
18218;DHT22;9234;49.344;11.120;2022-11-21T14:04:00;11.00;99.90
18218;DHT22;9234;49.344;11.120;2022-11-21T14:06:41;10.80;99.90
18218;DHT22;9234;49.344;11.120;2022-11-21T14:09:20;10.70;99.90
18218;DHT22;9234;49.344;11.120;2022-11-21T14:11:53;10.70;99.90
18218;DHT22;9234;49.344;11.120;2022-11-21T14:14:32;10.70;99.90
18218;DHT22;9234;49.344;11.120;2022-11-21T14:17:26;10.60;99.90
18218;DHT22;9234;49.344;11.120;2022-11-21T14:20:17;10.60;99.90
18218;DHT22;9234;49.344;11.120;2022-11-21T14:22:59;10.50;99.90
18218;DHT22;9234;49.344;11.120;2022-11-21T14:25:36;10.40;99.90
18218;DHT22;9234;49.344;11.120;2022-11-21T14:28:13;10.20;99.90
18218;DHT22;9234;49.344;11.120;2022-11-21T14:30:46;10.00;99.90
18218;DHT22;9234;49.344;11.120;2022-11-21T14:33:29;9.90;99.90
18218;DHT22;9234;49.344;11.120;2022-11-21T14:36:04;9.70;99.90
18218;DHT22;9234;49.344;11.120;2022-11-21T14:38:41;9.60;99.90
18218;DHT22;9234;49.344;11.120;2022-11-21T14:41:25;9.40;99.90
18218;DHT22;9234;49.344;11.120;2022-11-21T14:46:50;9.10;99.90
18218;DHT22;9234;49.344;11.120;2022-11-21T14:49:29;8.90;99.90
18218;DHT22;9234;49.344;11.120;2022-11-21T14:52:03;8.80;99.90
18218;DHT22;9234;49.344;11.120;2022-11-21T14:54:45;8.60;99.90
18218;DHT22;9234;49.344;11.120;2022-11-21T14:57:39;8.50;99.90
18218;DHT22;9234;49.344;11.120;2022-11-21T15:00:13;8.30;99.90
18218;DHT22;9234;49.344;11.120;2022-11-21T15:03:03;8.10;99.90
18218;DHT22;9234;49.344;11.120;2022-11-21T15:05:33;7.90;99.90
18218;DHT22;9234;49.344;11.120;2022-11-21T15:08:23;7.70;99.90
18218;DHT22;9234;49.344;11.120;2022-11-21T15:11:12;7.50;99.90
18218;DHT22;9234;49.344;11.120;2022-11-21T15:13:47;7.30;99.90
18218;DHT22;9234;49.344;11.120;2022-11-21T15:16:39;7.10;99.90
18218;DHT22;9234;49.344;11.120;2022-11-21T15:19:08;7.00;99.90
18218;DHT22;9234;49.344;11.120;2022-11-21T15:21:43;6.80;99.90
18218;DHT22;9234;49.344;11.120;2022-11-21T15:24:18;6.70;99.90
18218;DHT22;9234;49.344;11.120;2022-11-21T15:26:56;6.50;99.90
18218;DHT22;9234;49.344;11.120;2022-11-21T15:29:25;6.40;99.90
18218;DHT22;9234;49.344;11.120;2022-11-21T15:32:06;6.20;99.90
18218;DHT22;9234;49.344;11.120;2022-11-21T15:34:42;6.10;99.90
18218;DHT22;9234;49.344;11.120;2022-11-21T15:37:13;5.90;99.90
18218;DHT22;9234;49.344;11.120;2022-11-21T15:39:47;5.80;99.90
18218;DHT22;9234;49.344;11.120;2022-11-21T15:42:35;5.70;99.90
18218;DHT22;9234;49.344;11.120;2022-11-21T15:45:21;5.50;99.90
18218;DHT22;9234;49.344;11.120;2022-11-21T15:47:52;5.30;99.90
18218;DHT22;9234;49.344;11.120;2022-11-21T15:50:23;5.30;99.90
18218;DHT22;9234;49.344;11.120;2022-11-21T15:52:52;5.20;99.90
18218;DHT22;9234;49.344;11.120;2022-11-21T15:55:24;5.00;99.90
18218;DHT22;9234;49.344;11.120;2022-11-21T15:57:55;4.90;99.90
18218;DHT22;9234;49.344;11.120;2022-11-21T16:00:23;4.80;99.90
18218;DHT22;9234;49.344;11.120;2022-11-21T16:02:52;4.70;99.90
18218;DHT22;9234;49.344;11.120;2022-11-21T16:05:21;4.70;99.90
18218;DHT22;9234;49.344;11.120;2022-11-21T16:07:49;4.70;99.90
18218;DHT22;9234;49.344;11.120;2022-11-21T16:10:17;4.60;99.90
18218;DHT22;9234;49.344;11.120;2022-11-21T16:12:54;4.60;99.90
18218;DHT22;9234;49.344;11.120;2022-11-21T16:15:22;4.60;99.90
18218;DHT22;9234;49.344;11.120;2022-11-21T16:17:51;4.50;99.90
18218;DHT22;9234;49.344;11.120;2022-11-21T16:20:20;4.50;99.90
18218;DHT22;9234;49.344;11.120;2022-11-21T16:22:48;4.50;99.90
18218;DHT22;9234;49.344;11.120;2022-11-21T16:25:17;4.60;99.90
18218;DHT22;9234;49.344;11.120;2022-11-21T16:27:45;4.50;99.90
18218;DHT22;9234;49.344;11.120;2022-11-21T16:30:15;4.50;99.90
18218;DHT22;9234;49.344;11.120;2022-11-21T16:32:43;4.50;99.90
18218;DHT22;9234;49.344;11.120;2022-11-21T16:35:12;4.40;99.90
18218;DHT22;9234;49.344;11.120;2022-11-21T16:37:41;4.30;99.90
18218;DHT22;9234;49.344;11.120;2022-11-21T16:40:09;4.30;99.90